sensor_id;sensor_type;location;lat;lon;timestamp;pressure;altitude;pressure_sealevel;temperature
68743;BMP180;55725;42.758;26.702;2023-02-11T00:01:37;101107.00;;;-7.10
68743;BMP180;55725;42.758;26.702;2023-02-11T00:03:17;101108.00;;;-6.90
68743;BMP180;55725;42.758;26.702;2023-02-11T00:04:57;101102.00;;;-7.30
68743;BMP180;55725;42.758;26.702;2023-02-11T00:06:38;101101.00;;;-7.20
68743;BMP180;55725;42.758;26.702;2023-02-11T00:08:18;101105.00;;;-7.50
68743;BMP180;55725;42.758;26.702;2023-02-11T00:09:58;101100.00;;;-7.70
68743;BMP180;55725;42.758;26.702;2023-02-11T00:11:39;101104.00;;;-7.40
68743;BMP180;55725;42.758;26.702;2023-02-11T00:13:19;101106.00;;;-7.80
68743;BMP180;55725;42.758;26.702;2023-02-11T00:15:00;101099.00;;;-7.20
68743;BMP180;55725;42.758;26.702;2023-02-11T00:16:40;101095.00;;;-7.70
68743;BMP180;55725;42.758;26.702;2023-02-11T00:18:20;101100.00;;;-7.50
68743;BMP180;55725;42.758;26.702;2023-02-11T00:20:01;101093.00;;;-7.20
68743;BMP180;55725;42.758;26.702;2023-02-11T00:21:41;101093.00;;;-6.80
68743;BMP180;55725;42.758;26.702;2023-02-11T00:23:21;101096.00;;;-6.80
68743;BMP180;55725;42.758;26.702;2023-02-11T00:25:02;101095.00;;;-7.30
68743;BMP180;55725;42.758;26.702;2023-02-11T00:26:42;101103.00;;;-7.30
68743;BMP180;55725;42.758;26.702;2023-02-11T00:28:23;101093.00;;;-7.30
68743;BMP180;55725;42.758;26.702;2023-02-11T00:30:04;101102.00;;;-7.60
68743;BMP180;55725;42.758;26.702;2023-02-11T00:31:44;101094.00;;;-7.40
68743;BMP180;55725;42.758;26.702;2023-02-11T00:33:24;101093.00;;;-8.00
68743;BMP180;55725;42.758;26.702;2023-02-11T00:35:05;101101.00;;;-7.60
68743;BMP180;55725;42.758;26.702;2023-02-11T00:36:45;101090.00;;;-7.50
68743;BMP180;55725;42.758;26.702;2023-02-11T00:38:26;101087.00;;;-7.50
68743;BMP180;55725;42.758;26.702;2023-02-11T00:40:06;101092.00;;;-7.40
68743;BMP180;55725;42.758;26.702;2023-02-11T00:41:46;101099.00;;;-7.70
68743;BMP180;55725;42.758;26.702;2023-02-11T00:43:27;101101.00;;;-7.40
68743;BMP180;55725;42.758;26.702;2023-02-11T00:45:07;101094.00;;;-7.40
68743;BMP180;55725;42.758;26.702;2023-02-11T00:46:48;101094.00;;;-7.50
68743;BMP180;55725;42.758;26.702;2023-02-11T00:48:29;101089.00;;;-7.50
68743;BMP180;55725;42.758;26.702;2023-02-11T00:50:09;101092.00;;;-7.10
68743;BMP180;55725;42.758;26.702;2023-02-11T00:51:49;101086.00;;;-7.60
68743;BMP180;55725;42.758;26.702;2023-02-11T00:53:30;101079.00;;;-7.80
68743;BMP180;55725;42.758;26.702;2023-02-11T00:55:10;101081.00;;;-7.70
68743;BMP180;55725;42.758;26.702;2023-02-11T00:56:51;101073.00;;;-7.40
68743;BMP180;55725;42.758;26.702;2023-02-11T00:58:31;101073.00;;;-7.60
68743;BMP180;55725;42.758;26.702;2023-02-11T01:00:12;101074.00;;;-8.00
68743;BMP180;55725;42.758;26.702;2023-02-11T01:01:52;101071.00;;;-7.90
68743;BMP180;55725;42.758;26.702;2023-02-11T01:03:33;101061.00;;;-8.30
68743;BMP180;55725;42.758;26.702;2023-02-11T01:05:13;101058.00;;;-8.20
68743;BMP180;55725;42.758;26.702;2023-02-11T01:06:54;101068.00;;;-8.30
68743;BMP180;55725;42.758;26.702;2023-02-11T01:08:34;101072.00;;;-7.70
68743;BMP180;55725;42.758;26.702;2023-02-11T01:10:14;101073.00;;;-7.80
68743;BMP180;55725;42.758;26.702;2023-02-11T01:11:54;101065.00;;;-8.10
68743;BMP180;55725;42.758;26.702;2023-02-11T01:13:35;101062.00;;;-7.90
68743;BMP180;55725;42.758;26.702;2023-02-11T01:15:17;101063.00;;;-8.00
68743;BMP180;55725;42.758;26.702;2023-02-11T01:16:57;101064.00;;;-8.00
68743;BMP180;55725;42.758;26.702;2023-02-11T01:18:38;101062.00;;;-8.30
68743;BMP180;55725;42.758;26.702;2023-02-11T01:20:20;101059.00;;;-8.00
68743;BMP180;55725;42.758;26.702;2023-02-11T01:22:00;101063.00;;;-7.80
68743;BMP180;55725;42.758;26.702;2023-02-11T01:23:41;101055.00;;;-8.10
68743;BMP180;55725;42.758;26.702;2023-02-11T01:25:21;101063.00;;;-8.10
68743;BMP180;55725;42.758;26.702;2023-02-11T01:27:01;101050.00;;;-8.20
68743;BMP180;55725;42.758;26.702;2023-02-11T01:28:42;101052.00;;;-8.20
68743;BMP180;55725;42.758;26.702;2023-02-11T01:30:22;101051.00;;;-7.90
68743;BMP180;55725;42.758;26.702;2023-02-11T01:32:02;101056.00;;;-7.80
68743;BMP180;55725;42.758;26.702;2023-02-11T01:33:43;101049.00;;;-8.20
68743;BMP180;55725;42.758;26.702;2023-02-11T01:35:23;101049.00;;;-7.60
68743;BMP180;55725;42.758;26.702;2023-02-11T01:37:03;101035.00;;;-8.30
68743;BMP180;55725;42.758;26.702;2023-02-11T01:38:43;101041.00;;;-8.00
68743;BMP180;55725;42.758;26.702;2023-02-11T01:40:24;101040.00;;;-7.50
68743;BMP180;55725;42.758;26.702;2023-02-11T01:42:04;101034.00;;;-8.10
68743;BMP180;55725;42.758;26.702;2023-02-11T01:43:46;101034.00;;;-8.20
68743;BMP180;55725;42.758;26.702;2023-02-11T01:47:28;101035.00;;;-8.30
68743;BMP180;55725;42.758;26.702;2023-02-11T01:49:10;101038.00;;;-8.60
68743;BMP180;55725;42.758;26.702;2023-02-11T01:50:52;101022.00;;;-8.40
68743;BMP180;55725;42.758;26.702;2023-02-11T01:52:35;101030.00;;;-8.20
68743;BMP180;55725;42.758;26.702;2023-02-11T01:54:17;101019.00;;;-7.90
68743;BMP180;55725;42.758;26.702;2023-02-11T01:56:17;101027.00;;;-8.30
68743;BMP180;55725;42.758;26.702;2023-02-11T01:58:17;101024.00;;;-7.90
68743;BMP180;55725;42.758;26.702;2023-02-11T02:01:45;101020.00;;;-8.30
68743;BMP180;55725;42.758;26.702;2023-02-11T02:03:27;101028.00;;;-8.30
68743;BMP180;55725;42.758;26.702;2023-02-11T02:05:21;101020.00;;;-8.70
68743;BMP180;55725;42.758;26.702;2023-02-11T02:07:10;101035.00;;;-8.60
68743;BMP180;55725;42.758;26.702;2023-02-11T02:08:53;101018.00;;;-8.00
68743;BMP180;55725;42.758;26.702;2023-02-11T02:10:34;101028.00;;;-8.80
68743;BMP180;55725;42.758;26.702;2023-02-11T02:12:15;101019.00;;;-8.10
68743;BMP180;55725;42.758;26.702;2023-02-11T02:13:56;101027.00;;;-7.70
68743;BMP180;55725;42.758;26.702;2023-02-11T02:15:36;101027.00;;;-8.50
68743;BMP180;55725;42.758;26.702;2023-02-11T02:17:23;101021.00;;;-8.20
68743;BMP180;55725;42.758;26.702;2023-02-11T02:23:00;101030.00;;;-9.10
68743;BMP180;55725;42.758;26.702;2023-02-11T02:24:54;101034.00;;;-9.30
68743;BMP180;55725;42.758;26.702;2023-02-11T02:26:41;101026.00;;;-9.40
68743;BMP180;55725;42.758;26.702;2023-02-11T02:34:08;101031.00;;;-8.50
68743;BMP180;55725;42.758;26.702;2023-02-11T02:39:20;101029.00;;;-8.90
68743;BMP180;55725;42.758;26.702;2023-02-11T02:41:05;101033.00;;;-8.60
68743;BMP180;55725;42.758;26.702;2023-02-11T02:42:46;101039.00;;;-8.30
68743;BMP180;55725;42.758;26.702;2023-02-11T02:44:27;101036.00;;;-8.40
68743;BMP180;55725;42.758;26.702;2023-02-11T02:47:57;101045.00;;;-8.70
68743;BMP180;55725;42.758;26.702;2023-02-11T02:49:37;101027.00;;;-8.50
68743;BMP180;55725;42.758;26.702;2023-02-11T02:55:11;101045.00;;;-9.50
68743;BMP180;55725;42.758;26.702;2023-02-11T02:56:56;101046.00;;;-9.90
68743;BMP180;55725;42.758;26.702;2023-02-11T02:58:54;101039.00;;;-8.40
68743;BMP180;55725;42.758;26.702;2023-02-11T03:04:28;101043.00;;;-9.30
68743;BMP180;55725;42.758;26.702;2023-02-11T03:06:16;101043.00;;;-9.10
68743;BMP180;55725;42.758;26.702;2023-02-11T03:09:46;101045.00;;;-9.30
68743;BMP180;55725;42.758;26.702;2023-02-11T03:11:28;101038.00;;;-8.90
68743;BMP180;55725;42.758;26.702;2023-02-11T03:13:09;101030.00;;;-8.90
68743;BMP180;55725;42.758;26.702;2023-02-11T03:14:50;101032.00;;;-9.40
68743;BMP180;55725;42.758;26.702;2023-02-11T03:16:31;101038.00;;;-8.80
68743;BMP180;55725;42.758;26.702;2023-02-11T03:18:18;101036.00;;;-9.40
68743;BMP180;55725;42.758;26.702;2023-02-11T03:20:00;101040.00;;;-9.00
68743;BMP180;55725;42.758;26.702;2023-02-11T03:21:41;101031.00;;;-9.50
68743;BMP180;55725;42.758;26.702;2023-02-11T03:23:33;101039.00;;;-9.70
68743;BMP180;55725;42.758;26.702;2023-02-11T03:25:14;101031.00;;;-8.90
68743;BMP180;55725;42.758;26.702;2023-02-11T03:26:55;101036.00;;;-9.10
68743;BMP180;55725;42.758;26.702;2023-02-11T03:28:41;101046.00;;;-8.70
68743;BMP180;55725;42.758;26.702;2023-02-11T03:34:07;101029.00;;;-9.40
68743;BMP180;55725;42.758;26.702;2023-02-11T03:35:55;101037.00;;;-9.10
68743;BMP180;55725;42.758;26.702;2023-02-11T03:37:38;101035.00;;;-9.50
68743;BMP180;55725;42.758;26.702;2023-02-11T03:39:21;101028.00;;;-9.40
68743;BMP180;55725;42.758;26.702;2023-02-11T03:41:04;101034.00;;;-9.80
68743;BMP180;55725;42.758;26.702;2023-02-11T03:42:47;101035.00;;;-9.70
68743;BMP180;55725;42.758;26.702;2023-02-11T03:44:31;101031.00;;;-9.00
68743;BMP180;55725;42.758;26.702;2023-02-11T03:46:14;101029.00;;;-9.60
68743;BMP180;55725;42.758;26.702;2023-02-11T03:47:57;101031.00;;;-9.00
68743;BMP180;55725;42.758;26.702;2023-02-11T03:49:38;101032.00;;;-9.50
68743;BMP180;55725;42.758;26.702;2023-02-11T03:51:20;101026.00;;;-9.30
68743;BMP180;55725;42.758;26.702;2023-02-11T03:53:01;101026.00;;;-9.20
68743;BMP180;55725;42.758;26.702;2023-02-11T03:54:42;101018.00;;;-9.60
68743;BMP180;55725;42.758;26.702;2023-02-11T03:56:25;101026.00;;;-9.10
68743;BMP180;55725;42.758;26.702;2023-02-11T03:58:06;101016.00;;;-9.40
68743;BMP180;55725;42.758;26.702;2023-02-11T03:59:54;101022.00;;;-9.50
68743;BMP180;55725;42.758;26.702;2023-02-11T04:01:35;101031.00;;;-8.60
68743;BMP180;55725;42.758;26.702;2023-02-11T04:03:15;101024.00;;;-8.30
68743;BMP180;55725;42.758;26.702;2023-02-11T04:04:55;101026.00;;;-8.70
68743;BMP180;55725;42.758;26.702;2023-02-11T04:06:36;101028.00;;;-8.70
68743;BMP180;55725;42.758;26.702;2023-02-11T04:08:16;101037.00;;;-8.60
68743;BMP180;55725;42.758;26.702;2023-02-11T04:09:56;101024.00;;;-8.70
68743;BMP180;55725;42.758;26.702;2023-02-11T04:11:37;101022.00;;;-9.20
68743;BMP180;55725;42.758;26.702;2023-02-11T04:13:17;101024.00;;;-8.80
68743;BMP180;55725;42.758;26.702;2023-02-11T04:14:57;101037.00;;;-9.00
68743;BMP180;55725;42.758;26.702;2023-02-11T04:16:37;101032.00;;;-9.70
68743;BMP180;55725;42.758;26.702;2023-02-11T04:18:18;101034.00;;;-9.20
68743;BMP180;55725;42.758;26.702;2023-02-11T04:19:58;101027.00;;;-9.80
68743;BMP180;55725;42.758;26.702;2023-02-11T04:21:38;101032.00;;;-9.50
68743;BMP180;55725;42.758;26.702;2023-02-11T04:23:19;101035.00;;;-9.90
68743;BMP180;55725;42.758;26.702;2023-02-11T04:24:59;101032.00;;;-9.30
68743;BMP180;55725;42.758;26.702;2023-02-11T04:26:39;101024.00;;;-9.50
68743;BMP180;55725;42.758;26.702;2023-02-11T04:28:20;101031.00;;;-10.10
68743;BMP180;55725;42.758;26.702;2023-02-11T04:30:00;101025.00;;;-9.70
68743;BMP180;55725;42.758;26.702;2023-02-11T04:31:40;101013.00;;;-9.40
68743;BMP180;55725;42.758;26.702;2023-02-11T04:33:21;101018.00;;;-9.60
68743;BMP180;55725;42.758;26.702;2023-02-11T04:35:01;101030.00;;;-9.50
68743;BMP180;55725;42.758;26.702;2023-02-11T04:36:42;101024.00;;;-9.50
68743;BMP180;55725;42.758;26.702;2023-02-11T04:38:22;101019.00;;;-9.10
68743;BMP180;55725;42.758;26.702;2023-02-11T04:40:03;101018.00;;;-9.10
68743;BMP180;55725;42.758;26.702;2023-02-11T04:41:43;101021.00;;;-9.30
68743;BMP180;55725;42.758;26.702;2023-02-11T04:43:23;101012.00;;;-9.80
68743;BMP180;55725;42.758;26.702;2023-02-11T04:45:04;101010.00;;;-9.60
68743;BMP180;55725;42.758;26.702;2023-02-11T04:46:45;101017.00;;;-9.50
68743;BMP180;55725;42.758;26.702;2023-02-11T04:48:25;101018.00;;;-9.40
68743;BMP180;55725;42.758;26.702;2023-02-11T04:50:05;101008.00;;;-9.40
68743;BMP180;55725;42.758;26.702;2023-02-11T04:51:46;101006.00;;;-9.50
68743;BMP180;55725;42.758;26.702;2023-02-11T04:53:26;101002.00;;;-9.20
68743;BMP180;55725;42.758;26.702;2023-02-11T04:55:06;101001.00;;;-9.30
68743;BMP180;55725;42.758;26.702;2023-02-11T04:56:47;101004.00;;;-9.80
68743;BMP180;55725;42.758;26.702;2023-02-11T04:58:28;101001.00;;;-9.20
68743;BMP180;55725;42.758;26.702;2023-02-11T05:00:09;101001.00;;;-9.30
68743;BMP180;55725;42.758;26.702;2023-02-11T05:01:49;101001.00;;;-9.50
68743;BMP180;55725;42.758;26.702;2023-02-11T05:03:29;101000.00;;;-9.30
68743;BMP180;55725;42.758;26.702;2023-02-11T05:05:10;101000.00;;;-9.10
68743;BMP180;55725;42.758;26.702;2023-02-11T05:06:50;100994.00;;;-9.50
68743;BMP180;55725;42.758;26.702;2023-02-11T05:08:30;100990.00;;;-9.10
68743;BMP180;55725;42.758;26.702;2023-02-11T05:10:11;100997.00;;;-8.80
68743;BMP180;55725;42.758;26.702;2023-02-11T05:11:51;101008.00;;;-8.70
68743;BMP180;55725;42.758;26.702;2023-02-11T05:13:32;100992.00;;;-8.90
68743;BMP180;55725;42.758;26.702;2023-02-11T05:15:12;100987.00;;;-8.90
68743;BMP180;55725;42.758;26.702;2023-02-11T05:16:53;100988.00;;;-9.40
68743;BMP180;55725;42.758;26.702;2023-02-11T05:18:33;100989.00;;;-9.60
68743;BMP180;55725;42.758;26.702;2023-02-11T05:20:16;100992.00;;;-9.20
68743;BMP180;55725;42.758;26.702;2023-02-11T05:21:56;100986.00;;;-8.90
68743;BMP180;55725;42.758;26.702;2023-02-11T05:23:37;100989.00;;;-9.10
68743;BMP180;55725;42.758;26.702;2023-02-11T05:25:18;100987.00;;;-8.90
68743;BMP180;55725;42.758;26.702;2023-02-11T05:26:59;100984.00;;;-9.10
68743;BMP180;55725;42.758;26.702;2023-02-11T05:28:40;100976.00;;;-8.40
68743;BMP180;55725;42.758;26.702;2023-02-11T05:30:20;100973.00;;;-8.60
68743;BMP180;55725;42.758;26.702;2023-02-11T05:32:01;100966.00;;;-9.00
68743;BMP180;55725;42.758;26.702;2023-02-11T05:33:41;100963.00;;;-9.00
68743;BMP180;55725;42.758;26.702;2023-02-11T05:35:22;100965.00;;;-8.70
68743;BMP180;55725;42.758;26.702;2023-02-11T05:37:02;100967.00;;;-8.90
68743;BMP180;55725;42.758;26.702;2023-02-11T05:38:42;100957.00;;;-8.80
68743;BMP180;55725;42.758;26.702;2023-02-11T05:40:23;100962.00;;;-8.60
68743;BMP180;55725;42.758;26.702;2023-02-11T05:42:03;100962.00;;;-8.50
68743;BMP180;55725;42.758;26.702;2023-02-11T05:43:43;100949.00;;;-8.80
68743;BMP180;55725;42.758;26.702;2023-02-11T05:45:24;100962.00;;;-8.70
68743;BMP180;55725;42.758;26.702;2023-02-11T05:47:04;100953.00;;;-8.30
68743;BMP180;55725;42.758;26.702;2023-02-11T05:48:47;100955.00;;;-8.30
68743;BMP180;55725;42.758;26.702;2023-02-11T05:50:27;100958.00;;;-7.90
68743;BMP180;55725;42.758;26.702;2023-02-11T05:52:08;100956.00;;;-8.30
68743;BMP180;55725;42.758;26.702;2023-02-11T05:53:48;100941.00;;;-7.90
68743;BMP180;55725;42.758;26.702;2023-02-11T05:55:28;100965.00;;;-7.50
68743;BMP180;55725;42.758;26.702;2023-02-11T05:57:09;100959.00;;;-7.50
68743;BMP180;55725;42.758;26.702;2023-02-11T05:58:49;100939.00;;;-7.20
68743;BMP180;55725;42.758;26.702;2023-02-11T06:00:29;100945.00;;;-7.40
68743;BMP180;55725;42.758;26.702;2023-02-11T06:02:09;100939.00;;;-7.30
68743;BMP180;55725;42.758;26.702;2023-02-11T06:03:50;100951.00;;;-7.30
68743;BMP180;55725;42.758;26.702;2023-02-11T06:05:30;100936.00;;;-7.10
68743;BMP180;55725;42.758;26.702;2023-02-11T06:07:11;100939.00;;;-6.80
68743;BMP180;55725;42.758;26.702;2023-02-11T06:08:51;100935.00;;;-6.60
68743;BMP180;55725;42.758;26.702;2023-02-11T06:10:31;100929.00;;;-6.60
68743;BMP180;55725;42.758;26.702;2023-02-11T06:12:12;100931.00;;;-6.40
68743;BMP180;55725;42.758;26.702;2023-02-11T06:13:52;100924.00;;;-6.30
68743;BMP180;55725;42.758;26.702;2023-02-11T06:15:32;100923.00;;;-6.60
68743;BMP180;55725;42.758;26.702;2023-02-11T06:17:12;100918.00;;;-6.20
68743;BMP180;55725;42.758;26.702;2023-02-11T06:18:53;100905.00;;;-6.20
68743;BMP180;55725;42.758;26.702;2023-02-11T06:20:33;100904.00;;;-6.20
68743;BMP180;55725;42.758;26.702;2023-02-11T06:22:13;100906.00;;;-6.00
68743;BMP180;55725;42.758;26.702;2023-02-11T06:23:54;100896.00;;;-6.40
68743;BMP180;55725;42.758;26.702;2023-02-11T06:25:34;100903.00;;;-5.80
68743;BMP180;55725;42.758;26.702;2023-02-11T06:27:14;100902.00;;;-6.10
68743;BMP180;55725;42.758;26.702;2023-02-11T06:28:55;100900.00;;;-6.30
68743;BMP180;55725;42.758;26.702;2023-02-11T06:30:36;100899.00;;;-6.00
68743;BMP180;55725;42.758;26.702;2023-02-11T06:32:16;100893.00;;;-5.70
68743;BMP180;55725;42.758;26.702;2023-02-11T06:33:57;100887.00;;;-5.20
68743;BMP180;55725;42.758;26.702;2023-02-11T06:35:38;100885.00;;;-5.30
68743;BMP180;55725;42.758;26.702;2023-02-11T06:37:18;100888.00;;;-5.20
68743;BMP180;55725;42.758;26.702;2023-02-11T06:38:58;100887.00;;;-4.90
68743;BMP180;55725;42.758;26.702;2023-02-11T06:40:39;100880.00;;;-4.30
68743;BMP180;55725;42.758;26.702;2023-02-11T06:42:19;100888.00;;;-4.30
68743;BMP180;55725;42.758;26.702;2023-02-11T06:43:59;100878.00;;;-4.20
68743;BMP180;55725;42.758;26.702;2023-02-11T06:45:40;100874.00;;;-4.10
68743;BMP180;55725;42.758;26.702;2023-02-11T06:47:20;100880.00;;;-4.30
68743;BMP180;55725;42.758;26.702;2023-02-11T06:49:00;100882.00;;;-3.60
68743;BMP180;55725;42.758;26.702;2023-02-11T06:50:40;100881.00;;;-3.60
68743;BMP180;55725;42.758;26.702;2023-02-11T06:52:21;100876.00;;;-3.20
68743;BMP180;55725;42.758;26.702;2023-02-11T06:54:01;100880.00;;;-3.20
68743;BMP180;55725;42.758;26.702;2023-02-11T06:55:41;100871.00;;;-3.30
68743;BMP180;55725;42.758;26.702;2023-02-11T06:57:22;100868.00;;;-3.30
68743;BMP180;55725;42.758;26.702;2023-02-11T06:59:02;100878.00;;;-3.10
68743;BMP180;55725;42.758;26.702;2023-02-11T07:00:42;100861.00;;;-2.60
68743;BMP180;55725;42.758;26.702;2023-02-11T07:02:23;100873.00;;;-2.70
68743;BMP180;55725;42.758;26.702;2023-02-11T07:04:03;100858.00;;;-2.50
68743;BMP180;55725;42.758;26.702;2023-02-11T07:05:43;100856.00;;;-2.50
68743;BMP180;55725;42.758;26.702;2023-02-11T07:07:24;100861.00;;;-2.60
68743;BMP180;55725;42.758;26.702;2023-02-11T07:09:04;100839.00;;;-2.90
68743;BMP180;55725;42.758;26.702;2023-02-11T07:10:44;100849.00;;;-2.70
68743;BMP180;55725;42.758;26.702;2023-02-11T07:12:25;100852.00;;;-2.40
68743;BMP180;55725;42.758;26.702;2023-02-11T07:14:06;100848.00;;;-2.30
68743;BMP180;55725;42.758;26.702;2023-02-11T07:15:50;100849.00;;;-2.40
68743;BMP180;55725;42.758;26.702;2023-02-11T07:17:30;100830.00;;;-2.60
68743;BMP180;55725;42.758;26.702;2023-02-11T07:19:10;100839.00;;;-2.70
68743;BMP180;55725;42.758;26.702;2023-02-11T07:20:51;100835.00;;;-2.70
68743;BMP180;55725;42.758;26.702;2023-02-11T07:22:32;100826.00;;;-2.10
68743;BMP180;55725;42.758;26.702;2023-02-11T07:24:13;100833.00;;;-1.80
68743;BMP180;55725;42.758;26.702;2023-02-11T07:25:53;100836.00;;;-1.40
68743;BMP180;55725;42.758;26.702;2023-02-11T07:27:33;100830.00;;;-1.30
68743;BMP180;55725;42.758;26.702;2023-02-11T07:29:14;100835.00;;;-1.10
68743;BMP180;55725;42.758;26.702;2023-02-11T07:30:54;100827.00;;;-0.90
68743;BMP180;55725;42.758;26.702;2023-02-11T07:32:34;100828.00;;;-0.70
68743;BMP180;55725;42.758;26.702;2023-02-11T07:34:14;100827.00;;;-0.90
68743;BMP180;55725;42.758;26.702;2023-02-11T07:35:55;100826.00;;;-1.20
68743;BMP180;55725;42.758;26.702;2023-02-11T07:37:38;100833.00;;;-0.80
68743;BMP180;55725;42.758;26.702;2023-02-11T07:39:21;100826.00;;;-0.60
68743;BMP180;55725;42.758;26.702;2023-02-11T07:41:02;100822.00;;;-0.20
68743;BMP180;55725;42.758;26.702;2023-02-11T07:42:43;100823.00;;;-0.30
68743;BMP180;55725;42.758;26.702;2023-02-11T07:44:23;100818.00;;;-0.30
68743;BMP180;55725;42.758;26.702;2023-02-11T07:46:07;100815.00;;;-0.40
68743;BMP180;55725;42.758;26.702;2023-02-11T07:47:48;100812.00;;;0.10
68743;BMP180;55725;42.758;26.702;2023-02-11T07:49:28;100812.00;;;-0.10
68743;BMP180;55725;42.758;26.702;2023-02-11T07:51:12;100811.00;;;0.10
68743;BMP180;55725;42.758;26.702;2023-02-11T07:52:53;100813.00;;;0.30
68743;BMP180;55725;42.758;26.702;2023-02-11T07:54:33;100802.00;;;0.20
68743;BMP180;55725;42.758;26.702;2023-02-11T07:56:14;100806.00;;;0.60
68743;BMP180;55725;42.758;26.702;2023-02-11T07:57:55;100806.00;;;0.00
68743;BMP180;55725;42.758;26.702;2023-02-11T07:59:35;100794.00;;;0.80
68743;BMP180;55725;42.758;26.702;2023-02-11T08:01:16;100804.00;;;0.90
68743;BMP180;55725;42.758;26.702;2023-02-11T08:02:57;100802.00;;;1.00
68743;BMP180;55725;42.758;26.702;2023-02-11T08:04:38;100805.00;;;1.10
68743;BMP180;55725;42.758;26.702;2023-02-11T08:06:19;100792.00;;;1.50
68743;BMP180;55725;42.758;26.702;2023-02-11T08:07:59;100800.00;;;1.40
68743;BMP180;55725;42.758;26.702;2023-02-11T08:09:39;100799.00;;;2.00
68743;BMP180;55725;42.758;26.702;2023-02-11T08:11:21;100798.00;;;2.20
68743;BMP180;55725;42.758;26.702;2023-02-11T08:13:01;100799.00;;;2.40
68743;BMP180;55725;42.758;26.702;2023-02-11T08:14:42;100806.00;;;2.70
68743;BMP180;55725;42.758;26.702;2023-02-11T08:16:24;100795.00;;;2.80
68743;BMP180;55725;42.758;26.702;2023-02-11T08:18:05;100790.00;;;3.10
68743;BMP180;55725;42.758;26.702;2023-02-11T08:19:45;100789.00;;;2.90
68743;BMP180;55725;42.758;26.702;2023-02-11T08:21:25;100787.00;;;2.70
68743;BMP180;55725;42.758;26.702;2023-02-11T08:23:06;100780.00;;;3.10
68743;BMP180;55725;42.758;26.702;2023-02-11T08:24:46;100776.00;;;3.70
68743;BMP180;55725;42.758;26.702;2023-02-11T08:26:27;100773.00;;;3.80
68743;BMP180;55725;42.758;26.702;2023-02-11T08:28:08;100770.00;;;4.20
68743;BMP180;55725;42.758;26.702;2023-02-11T08:29:48;100765.00;;;3.60
68743;BMP180;55725;42.758;26.702;2023-02-11T08:31:31;100775.00;;;4.00
68743;BMP180;55725;42.758;26.702;2023-02-11T08:33:12;100775.00;;;3.50
68743;BMP180;55725;42.758;26.702;2023-02-11T08:34:52;100765.00;;;3.80
68743;BMP180;55725;42.758;26.702;2023-02-11T08:36:34;100769.00;;;4.30
68743;BMP180;55725;42.758;26.702;2023-02-11T08:38:14;100756.00;;;3.30
68743;BMP180;55725;42.758;26.702;2023-02-11T08:39:55;100757.00;;;3.50
68743;BMP180;55725;42.758;26.702;2023-02-11T08:41:35;100761.00;;;4.60
68743;BMP180;55725;42.758;26.702;2023-02-11T08:43:15;100751.00;;;3.80
68743;BMP180;55725;42.758;26.702;2023-02-11T08:44:56;100744.00;;;4.30
68743;BMP180;55725;42.758;26.702;2023-02-11T08:46:36;100748.00;;;4.50
68743;BMP180;55725;42.758;26.702;2023-02-11T08:48:16;100740.00;;;5.00
68743;BMP180;55725;42.758;26.702;2023-02-11T08:49:56;100746.00;;;4.80
68743;BMP180;55725;42.758;26.702;2023-02-11T08:51:37;100741.00;;;4.70
68743;BMP180;55725;42.758;26.702;2023-02-11T08:53:17;100732.00;;;4.40
68743;BMP180;55725;42.758;26.702;2023-02-11T08:54:57;100733.00;;;5.40
68743;BMP180;55725;42.758;26.702;2023-02-11T08:56:38;100738.00;;;5.40
68743;BMP180;55725;42.758;26.702;2023-02-11T08:58:19;100733.00;;;5.50
68743;BMP180;55725;42.758;26.702;2023-02-11T08:59:59;100734.00;;;5.80
68743;BMP180;55725;42.758;26.702;2023-02-11T09:01:40;100726.00;;;6.00
68743;BMP180;55725;42.758;26.702;2023-02-11T09:03:20;100729.00;;;5.80
68743;BMP180;55725;42.758;26.702;2023-02-11T09:05:00;100724.00;;;6.20
68743;BMP180;55725;42.758;26.702;2023-02-11T09:06:40;100724.00;;;5.60
68743;BMP180;55725;42.758;26.702;2023-02-11T09:08:21;100729.00;;;5.30
68743;BMP180;55725;42.758;26.702;2023-02-11T09:10:01;100725.00;;;6.20
68743;BMP180;55725;42.758;26.702;2023-02-11T09:11:42;100722.00;;;6.00
68743;BMP180;55725;42.758;26.702;2023-02-11T09:13:23;100719.00;;;5.60
68743;BMP180;55725;42.758;26.702;2023-02-11T09:15:03;100717.00;;;6.40
68743;BMP180;55725;42.758;26.702;2023-02-11T09:16:44;100713.00;;;6.10
68743;BMP180;55725;42.758;26.702;2023-02-11T09:18:24;100720.00;;;6.00
68743;BMP180;55725;42.758;26.702;2023-02-11T09:20:05;100714.00;;;6.20
68743;BMP180;55725;42.758;26.702;2023-02-11T09:21:45;100708.00;;;6.20
68743;BMP180;55725;42.758;26.702;2023-02-11T09:23:26;100701.00;;;6.90
68743;BMP180;55725;42.758;26.702;2023-02-11T09:25:06;100717.00;;;7.80
68743;BMP180;55725;42.758;26.702;2023-02-11T09:26:46;100713.00;;;7.10
68743;BMP180;55725;42.758;26.702;2023-02-11T09:28:28;100705.00;;;6.90
68743;BMP180;55725;42.758;26.702;2023-02-11T09:30:09;100709.00;;;6.30
68743;BMP180;55725;42.758;26.702;2023-02-11T09:31:49;100707.00;;;7.20
68743;BMP180;55725;42.758;26.702;2023-02-11T09:33:29;100696.00;;;7.60
68743;BMP180;55725;42.758;26.702;2023-02-11T09:35:10;100687.00;;;7.20
68743;BMP180;55725;42.758;26.702;2023-02-11T09:36:50;100695.00;;;7.60
68743;BMP180;55725;42.758;26.702;2023-02-11T09:38:30;100688.00;;;7.10
68743;BMP180;55725;42.758;26.702;2023-02-11T09:40:11;100682.00;;;6.80
68743;BMP180;55725;42.758;26.702;2023-02-11T09:43:35;100684.00;;;7.70
68743;BMP180;55725;42.758;26.702;2023-02-11T09:45:19;100695.00;;;8.00
68743;BMP180;55725;42.758;26.702;2023-02-11T09:49:00;100676.00;;;6.80
68743;BMP180;55725;42.758;26.702;2023-02-11T09:50:53;100685.00;;;7.80
68743;BMP180;55725;42.758;26.702;2023-02-11T09:52:37;100683.00;;;7.20
68743;BMP180;55725;42.758;26.702;2023-02-11T09:56:14;100665.00;;;7.50
68743;BMP180;55725;42.758;26.702;2023-02-11T09:57:55;100667.00;;;6.90
68743;BMP180;55725;42.758;26.702;2023-02-11T09:59:35;100663.00;;;6.90
68743;BMP180;55725;42.758;26.702;2023-02-11T10:08:47;100655.00;;;7.70
68743;BMP180;55725;42.758;26.702;2023-02-11T10:13:52;100647.00;;;8.20
68743;BMP180;55725;42.758;26.702;2023-02-11T10:17:42;100631.00;;;7.90
68743;BMP180;55725;42.758;26.702;2023-02-11T10:23:00;100620.00;;;7.60